createdAt,value
2023-02-25T00:01:41.711Z,17.00
2023-02-25T00:04:11.712Z,14.63
2023-02-25T00:06:38.734Z,9.00
2023-02-25T00:09:06.804Z,22.23
2023-02-25T00:11:33.763Z,12.40
2023-02-25T00:14:01.803Z,20.70
2023-02-25T00:16:28.841Z,15.17
2023-02-25T00:18:57.628Z,14.03
2023-02-25T00:21:25.676Z,9.83
2023-02-25T00:23:53.669Z,14.00
2023-02-25T00:26:22.340Z,14.33
2023-02-25T00:28:50.095Z,16.23
2023-02-25T00:31:21.187Z,12.47
2023-02-25T00:33:49.387Z,8.57
2023-02-25T00:36:23.807Z,13.83
2023-02-25T00:38:56.808Z,12.13
2023-02-25T00:41:30.214Z,10.63
2023-02-25T00:44:02.415Z,10.17
2023-02-25T00:46:31.931Z,10.70
2023-02-25T00:48:59.451Z,9.40
2023-02-25T00:51:31.198Z,12.63
2023-02-25T00:53:58.345Z,11.20
2023-02-25T00:56:26.650Z,6.30
2023-02-25T00:58:54.262Z,11.03
2023-02-25T01:01:27.883Z,8.90
2023-02-25T01:03:56.625Z,9.23
2023-02-25T01:06:29.106Z,6.63
2023-02-25T01:08:57.869Z,14.50
2023-02-25T01:11:29.430Z,8.03
2023-02-25T01:13:59.311Z,11.90
2023-02-25T01:16:29.003Z,12.30
2023-02-25T01:18:59.997Z,7.23
2023-02-25T01:21:30.191Z,6.80
2023-02-25T01:24:03.674Z,10.13
2023-02-25T01:26:35.843Z,10.10
2023-02-25T01:29:07.551Z,9.63
2023-02-25T01:31:35.179Z,6.87
2023-02-25T01:34:04.338Z,16.03
2023-02-25T01:36:32.784Z,13.03
2023-02-25T01:39:01.036Z,10.87
2023-02-25T01:41:30.536Z,6.00
2023-02-25T01:44:21.836Z,7.50
2023-02-25T01:46:51.224Z,6.87
2023-02-25T01:49:18.535Z,5.73
2023-02-25T01:51:48.570Z,6.67
2023-02-25T01:54:16.613Z,6.83
2023-02-25T01:56:49.115Z,6.20
2023-02-25T01:59:17.736Z,7.17
2023-02-25T02:01:45.447Z,9.07
2023-02-25T02:04:15.134Z,10.37
2023-02-25T02:06:44.938Z,9.47
2023-02-25T02:09:15.030Z,7.70
2023-02-25T02:11:42.963Z,8.30
2023-02-25T02:14:19.848Z,11.87
2023-02-25T02:16:49.996Z,6.70
2023-02-25T02:19:38.706Z,5.93
2023-02-25T02:22:30.568Z,6.23
2023-02-25T02:25:51.670Z,7.80
2023-02-25T02:28:41.011Z,11.50
2023-02-25T02:31:29.021Z,13.63
2023-02-25T02:33:59.603Z,4.63
2023-02-25T02:37:04.250Z,4.33
2023-02-25T02:39:47.466Z,5.23
2023-02-25T02:42:34.334Z,6.83
2023-02-25T02:45:47.013Z,9.63
2023-02-25T02:48:34.331Z,4.03
2023-02-25T02:51:03.774Z,3.57
2023-02-25T02:53:40.531Z,8.37
2023-02-25T02:56:11.834Z,6.60
2023-02-25T02:58:46.075Z,7.23
2023-02-25T03:01:20.880Z,4.07
2023-02-25T03:04:00.910Z,7.27
2023-02-25T03:06:33.848Z,4.80
2023-02-25T03:09:09.969Z,8.03
2023-02-25T03:11:37.456Z,4.87
2023-02-25T03:14:08.187Z,4.53
2023-02-25T03:16:58.156Z,5.27
2023-02-25T03:19:39.892Z,7.43
2023-02-25T03:22:12.389Z,6.10
2023-02-25T03:24:49.258Z,8.63
2023-02-25T03:27:34.320Z,3.40
2023-02-25T03:30:28.170Z,7.63
2023-02-25T03:33:18.486Z,7.47
2023-02-25T03:35:47.546Z,7.17
2023-02-25T03:38:20.067Z,3.97
2023-02-25T03:40:49.168Z,6.23
2023-02-25T03:43:21.544Z,6.10
2023-02-25T03:45:49.147Z,5.10
2023-02-25T03:48:17.599Z,4.27
2023-02-25T03:50:54.698Z,8.73
2023-02-25T03:53:22.505Z,7.13
2023-02-25T03:55:57.056Z,4.30
2023-02-25T03:58:24.938Z,6.63
2023-02-25T04:00:56.213Z,17.53
2023-02-25T04:03:25.351Z,7.70
2023-02-25T04:05:53.035Z,4.30
2023-02-25T04:08:20.563Z,5.40
2023-02-25T04:10:48.342Z,7.63
2023-02-25T04:13:20.405Z,6.10
2023-02-25T04:15:49.570Z,3.90
2023-02-25T04:18:17.468Z,3.40
2023-02-25T04:20:45.240Z,4.67
2023-02-25T04:23:16.741Z,10.37
2023-02-25T04:25:44.374Z,9.00
2023-02-25T04:28:12.212Z,9.63
2023-02-25T04:30:39.682Z,5.90
2023-02-25T04:33:07.039Z,11.73
2023-02-25T04:35:34.416Z,6.83
2023-02-25T04:38:01.727Z,12.93
2023-02-25T04:40:29.265Z,12.87
2023-02-25T04:42:56.705Z,6.97
2023-02-25T04:45:26.915Z,10.43
2023-02-25T04:47:56.675Z,5.70
2023-02-25T04:50:24.802Z,3.20
2023-02-25T04:52:52.222Z,3.70
2023-02-25T04:55:20.038Z,10.50
2023-02-25T04:57:47.842Z,4.63
2023-02-25T05:00:20.713Z,9.70
2023-02-25T05:02:48.961Z,16.13
2023-02-25T05:05:17.315Z,6.60
2023-02-25T05:07:44.969Z,7.77
2023-02-25T05:10:14.547Z,4.20
2023-02-25T05:12:42.497Z,6.03
2023-02-25T05:15:10.700Z,6.50
2023-02-25T05:17:38.308Z,6.57
2023-02-25T05:20:11.948Z,5.03
2023-02-25T05:22:40.249Z,8.30
2023-02-25T05:25:10.138Z,8.93
2023-02-25T05:27:37.667Z,3.57
2023-02-25T05:30:05.499Z,3.60
2023-02-25T05:32:33.094Z,10.03
2023-02-25T05:35:00.606Z,8.27
2023-02-25T05:37:28.122Z,3.80
2023-02-25T05:39:55.454Z,3.30
2023-02-25T05:42:22.489Z,3.10
2023-02-25T05:44:49.415Z,8.03
2023-02-25T05:47:16.637Z,2.17
2023-02-25T05:49:43.658Z,5.23
2023-02-25T05:52:13.528Z,4.63
2023-02-25T05:54:41.156Z,5.23
2023-02-25T05:57:08.612Z,1.50
2023-02-25T05:59:36.868Z,5.40
2023-02-25T06:02:04.720Z,3.30
2023-02-25T06:04:31.785Z,2.27
2023-02-25T06:06:58.763Z,7.77
2023-02-25T06:09:26.960Z,1.90
2023-02-25T06:11:53.925Z,5.17
2023-02-25T06:14:21.052Z,2.93
2023-02-25T06:16:48.062Z,5.70
2023-02-25T06:19:15.068Z,3.37
2023-02-25T06:21:42.060Z,8.17
2023-02-25T06:24:10.538Z,9.43
2023-02-25T06:26:42.637Z,9.33
2023-02-25T06:29:10.721Z,2.80
2023-02-25T06:31:37.875Z,3.40
2023-02-25T06:34:05.770Z,3.73
2023-02-25T06:36:33.420Z,2.00
2023-02-25T06:39:00.946Z,1.40
2023-02-25T06:41:28.216Z,4.33
2023-02-25T06:43:55.211Z,4.57
2023-02-25T06:46:25.855Z,1.73
2023-02-25T06:48:53.962Z,2.80
2023-02-25T06:51:21.413Z,9.13
2023-02-25T06:53:48.648Z,2.97
2023-02-25T06:56:16.550Z,2.17
2023-02-25T06:58:43.582Z,3.90
2023-02-25T07:01:14.383Z,2.83
2023-02-25T07:03:43.613Z,6.20
2023-02-25T07:06:11.453Z,1.93
2023-02-25T07:08:38.422Z,4.77
2023-02-25T07:11:25.881Z,5.90
2023-02-25T07:13:52.892Z,4.40
2023-02-25T07:16:20.556Z,6.63
2023-02-25T07:18:47.819Z,9.77
2023-02-25T07:21:16.081Z,3.77
2023-02-25T07:23:43.308Z,21.30
2023-02-25T07:26:13.262Z,4.87
2023-02-25T07:28:41.339Z,1.53
2023-02-25T07:31:15.888Z,2.10
2023-02-25T07:33:43.898Z,10.03
2023-02-25T07:36:11.989Z,2.77
2023-02-25T07:38:39.290Z,2.17
2023-02-25T07:41:15.514Z,8.00
2023-02-25T07:43:43.337Z,5.53
2023-02-25T07:46:11.137Z,11.90
2023-02-25T07:48:38.182Z,21.23
2023-02-25T07:51:08.811Z,3.00
2023-02-25T07:53:35.865Z,4.33
2023-02-25T07:56:06.094Z,2.93
2023-02-25T07:58:33.750Z,9.90
2023-02-25T08:01:03.137Z,7.77
2023-02-25T08:03:30.125Z,3.93
2023-02-25T08:05:57.523Z,3.03
2023-02-25T08:08:24.497Z,4.23
2023-02-25T08:10:51.594Z,15.40
2023-02-25T08:13:19.404Z,11.70
2023-02-25T08:15:46.715Z,2.00
2023-02-25T08:18:13.677Z,13.17
2023-02-25T08:20:47.501Z,7.83
2023-02-25T08:23:14.717Z,4.10
2023-02-25T08:25:41.668Z,5.90
2023-02-25T08:28:08.618Z,8.20
2023-02-25T08:30:35.789Z,4.47
2023-02-25T08:33:02.925Z,6.93
2023-02-25T08:35:29.941Z,6.90
2023-02-25T08:37:56.896Z,3.53
2023-02-25T08:40:23.849Z,5.33
2023-02-25T08:42:50.834Z,6.43
2023-02-25T08:45:17.936Z,3.50
2023-02-25T08:47:45.054Z,4.23
2023-02-25T08:50:12.783Z,2.50
2023-02-25T08:52:42.105Z,4.43
2023-02-25T08:55:09.883Z,8.10
2023-02-25T08:57:37.019Z,2.33
2023-02-25T09:00:07.003Z,2.63
2023-02-25T09:02:34.841Z,5.30
2023-02-25T09:05:02.055Z,2.10
2023-02-25T09:07:28.995Z,21.13
2023-02-25T09:09:56.026Z,1.40
2023-02-25T09:12:24.825Z,3.80
2023-02-25T09:14:52.126Z,2.40
2023-02-25T09:17:19.227Z,7.37
2023-02-25T09:19:46.232Z,2.80
2023-02-25T09:22:13.233Z,3.87
2023-02-25T09:24:40.237Z,2.60
2023-02-25T09:27:08.295Z,6.50
2023-02-25T09:29:37.875Z,3.23
2023-02-25T09:32:06.700Z,2.53
2023-02-25T09:34:34.031Z,2.97
2023-02-25T09:37:06.149Z,2.60
2023-02-25T09:39:33.100Z,12.73
2023-02-25T09:42:10.507Z,1.57
2023-02-25T09:45:04.606Z,3.00
2023-02-25T09:47:44.326Z,7.70
2023-02-25T09:50:28.872Z,1.63
2023-02-25T09:53:31.816Z,2.60
2023-02-25T09:55:59.270Z,4.47
2023-02-25T09:58:54.361Z,3.93
2023-02-25T10:01:36.599Z,1.00
2023-02-25T10:04:16.662Z,2.00
2023-02-25T10:06:48.971Z,5.43
2023-02-25T10:09:27.161Z,2.73
2023-02-25T10:12:20.907Z,3.37
2023-02-25T10:15:02.874Z,2.43
2023-02-25T10:17:46.916Z,10.30
2023-02-25T10:20:23.487Z,7.30
2023-02-25T10:23:29.629Z,8.63
2023-02-25T10:26:03.729Z,9.93
2023-02-25T10:28:32.333Z,8.57
2023-02-25T10:31:07.094Z,11.23
2023-02-25T10:33:42.591Z,1.47
2023-02-25T10:36:18.940Z,1.73
2023-02-25T10:38:50.881Z,5.13
2023-02-25T10:41:22.631Z,6.43
2023-02-25T10:43:51.316Z,2.70
2023-02-25T10:46:41.758Z,1.37
2023-02-25T10:49:27.776Z,2.73
2023-02-25T10:52:18.694Z,1.43
2023-02-25T10:54:51.611Z,1.00
2023-02-25T10:57:29.506Z,3.37
2023-02-25T11:00:23.667Z,4.30
2023-02-25T11:02:52.176Z,5.43
2023-02-25T11:05:41.458Z,1.80
2023-02-25T11:08:32.592Z,4.00
2023-02-25T11:11:19.781Z,3.23
2023-02-25T11:14:00.630Z,5.33
2023-02-25T11:16:29.633Z,2.70
2023-02-25T11:19:00.198Z,2.47
2023-02-25T11:21:34.149Z,5.03
2023-02-25T11:24:12.391Z,3.30
2023-02-25T11:26:43.988Z,1.70
2023-02-25T11:29:21.779Z,2.67
2023-02-25T11:31:55.789Z,3.53
2023-02-25T11:34:32.688Z,6.27
2023-02-25T11:37:45.520Z,3.40
2023-02-25T11:40:30.676Z,1.70
2023-02-25T11:43:06.698Z,6.90
2023-02-25T11:45:49.215Z,8.07
2023-02-25T11:48:28.098Z,4.67
2023-02-25T11:51:14.992Z,2.97
2023-02-25T11:54:09.129Z,5.00
2023-02-25T11:56:43.773Z,3.63
2023-02-25T11:59:44.494Z,6.70
2023-02-25T12:02:29.099Z,3.03
2023-02-25T12:05:23.880Z,3.07
2023-02-25T12:08:17.368Z,1.90
2023-02-25T12:11:40.495Z,2.20
2023-02-25T12:14:31.306Z,4.07
2023-02-25T12:17:27.200Z,4.10
2023-02-25T12:20:37.870Z,3.13
2023-02-25T12:23:38.545Z,6.37
2023-02-25T12:26:54.864Z,10.13
2023-02-25T12:29:52.853Z,8.43
2023-02-25T12:33:06.968Z,9.30
2023-02-25T12:36:31.316Z,3.63
2023-02-25T12:39:10.038Z,8.20
2023-02-25T12:41:41.130Z,16.47
2023-02-25T12:44:52.029Z,6.60
2023-02-25T12:48:03.461Z,15.27
2023-02-25T12:51:06.865Z,7.43
2023-02-25T12:53:55.268Z,8.63
2023-02-25T12:56:54.269Z,4.33
2023-02-25T12:59:56.182Z,2.00
2023-02-25T13:02:34.649Z,5.40
2023-02-25T13:05:24.855Z,9.13
2023-02-25T13:08:12.968Z,3.43
2023-02-25T13:11:02.868Z,10.97
2023-02-25T13:13:55.600Z,2.80
2023-02-25T13:17:16.294Z,2.57
2023-02-25T13:19:54.904Z,3.60
2023-02-25T13:22:51.932Z,10.07
2023-02-25T13:25:39.264Z,2.23
2023-02-25T13:28:36.455Z,1.90
2023-02-25T13:31:40.693Z,5.93
2023-02-25T13:34:19.958Z,1.40
2023-02-25T13:36:53.283Z,5.70
2023-02-25T13:39:39.625Z,8.00
2023-02-25T13:42:27.582Z,5.37
2023-02-25T13:45:28.632Z,3.53
2023-02-25T13:48:14.864Z,7.77
2023-02-25T13:51:02.002Z,2.27
2023-02-25T13:53:59.792Z,1.30
2023-02-25T13:56:57.278Z,2.10
2023-02-25T13:59:58.196Z,3.30
2023-02-25T14:02:44.502Z,7.03
2023-02-25T14:05:33.546Z,2.80
2023-02-25T14:08:31.173Z,0.97
2023-02-25T14:11:06.372Z,4.83
2023-02-25T14:14:05.063Z,3.00
2023-02-25T14:16:46.443Z,3.17
2023-02-25T14:19:34.878Z,4.43
2023-02-25T14:22:37.569Z,2.83
2023-02-25T14:25:22.251Z,1.93
2023-02-25T14:27:52.625Z,10.10
2023-02-25T14:30:39.805Z,8.30
2023-02-25T14:33:36.761Z,2.70
2023-02-25T14:36:41.765Z,5.33
2023-02-25T14:39:45.587Z,6.00
2023-02-25T14:42:50.313Z,4.30
2023-02-25T14:45:25.181Z,2.53
2023-02-25T14:48:08.611Z,4.60
2023-02-25T14:50:49.066Z,4.03
2023-02-25T14:53:41.760Z,4.73
2023-02-25T14:56:43.102Z,7.13
2023-02-25T14:59:47.445Z,10.50
2023-02-25T15:02:42.283Z,2.70
2023-02-25T15:05:49.369Z,15.43
2023-02-25T15:08:35.612Z,8.77
2023-02-25T15:11:48.126Z,3.40
2023-02-25T15:14:17.948Z,11.43
2023-02-25T15:17:31.725Z,2.50
2023-02-25T15:20:03.401Z,3.67
2023-02-25T15:22:34.135Z,6.27
2023-02-25T15:25:19.845Z,4.57
2023-02-25T15:27:54.404Z,1.90
2023-02-25T15:30:26.628Z,7.73
2023-02-25T15:33:13.847Z,10.43
2023-02-25T15:35:41.125Z,6.63
2023-02-25T15:38:38.180Z,6.70
2023-02-25T15:41:34.635Z,5.60
2023-02-25T15:44:14.213Z,2.17
2023-02-25T15:46:49.219Z,4.20
2023-02-25T15:49:27.821Z,8.13
2023-02-25T15:51:59.711Z,4.30
2023-02-25T15:54:29.990Z,5.37
2023-02-25T15:57:01.818Z,3.53
2023-02-25T15:59:48.773Z,3.10
2023-02-25T16:02:33.159Z,6.77
2023-02-25T16:05:19.892Z,4.00
2023-02-25T16:08:15.750Z,6.67
2023-02-25T16:10:49.403Z,9.40
2023-02-25T16:13:28.050Z,5.27
2023-02-25T16:16:00.192Z,1.90
2023-02-25T16:18:45.317Z,3.20
2023-02-25T16:21:26.579Z,3.63
2023-02-25T16:23:54.774Z,2.80
2023-02-25T16:26:25.383Z,2.03
2023-02-25T16:29:28.777Z,3.43
2023-02-25T16:32:05.172Z,6.17
2023-02-25T16:34:46.752Z,2.13
2023-02-25T16:37:14.048Z,1.97
2023-02-25T16:39:41.582Z,4.43
2023-02-25T16:42:14.755Z,1.60
2023-02-25T16:44:46.149Z,2.93
2023-02-25T16:47:24.441Z,2.80
2023-02-25T16:49:53.399Z,6.27
2023-02-25T16:52:32.904Z,8.83
2023-02-25T16:55:05.168Z,5.20
2023-02-25T16:57:38.932Z,5.47
2023-02-25T17:00:19.925Z,3.93
2023-02-25T17:02:50.824Z,6.20
2023-02-25T17:05:37.213Z,5.07
2023-02-25T17:08:15.313Z,10.83
2023-02-25T17:10:56.752Z,20.17
2023-02-25T17:13:37.724Z,14.13
2023-02-25T17:16:06.552Z,40.60
2023-02-25T17:18:45.986Z,7.13
2023-02-25T17:21:29.663Z,11.17
2023-02-25T17:23:58.049Z,2.83
2023-02-25T17:26:26.271Z,1.30
2023-02-25T17:28:56.308Z,2.27
2023-02-25T17:31:26.966Z,1.90
2023-02-25T17:34:00.846Z,1.37
2023-02-25T17:36:48.517Z,2.50
2023-02-25T17:39:17.951Z,3.67
2023-02-25T17:41:45.524Z,1.27
2023-02-25T17:44:32.409Z,10.23
2023-02-25T17:47:00.320Z,2.00
2023-02-25T17:49:30.410Z,1.97
2023-02-25T17:52:00.120Z,2.13
2023-02-25T17:54:29.249Z,8.00
2023-02-25T17:57:00.135Z,7.40
2023-02-25T17:59:38.782Z,5.10
2023-02-25T18:02:37.369Z,3.73
2023-02-25T18:05:13.900Z,6.23
2023-02-25T18:07:42.575Z,10.57
2023-02-25T18:10:31.295Z,6.13
2023-02-25T18:13:03.772Z,5.83
2023-02-25T18:15:35.915Z,11.73
2023-02-25T18:18:06.002Z,8.73
2023-02-25T18:20:41.009Z,9.30
2023-02-25T18:23:15.322Z,8.23
2023-02-25T18:25:48.482Z,5.93
2023-02-25T18:28:23.425Z,14.67
2023-02-25T18:30:52.407Z,23.07
2023-02-25T18:33:19.855Z,24.90
2023-02-25T18:35:47.887Z,22.60
2023-02-25T18:38:23.460Z,29.23
2023-02-25T18:40:52.115Z,30.40
2023-02-25T18:43:30.493Z,15.10
2023-02-25T18:45:58.212Z,13.20
2023-02-25T18:48:26.262Z,6.53
2023-02-25T18:50:54.995Z,5.97
2023-02-25T18:53:23.958Z,8.40
2023-02-25T18:55:52.024Z,6.80
2023-02-25T18:58:23.600Z,8.10
2023-02-25T19:00:54.433Z,8.90
2023-02-25T19:03:33.354Z,7.67
2023-02-25T19:06:00.896Z,26.03
2023-02-25T19:08:28.264Z,46.07
2023-02-25T19:10:55.728Z,53.17
2023-02-25T19:13:35.581Z,56.27
2023-02-25T19:16:04.666Z,41.70
2023-02-25T19:18:32.060Z,13.50
2023-02-25T19:20:59.488Z,20.33
2023-02-25T19:23:27.143Z,20.70
2023-02-25T19:25:58.399Z,12.70
2023-02-25T19:28:26.665Z,10.20
2023-02-25T19:30:54.103Z,6.60
2023-02-25T19:33:21.564Z,9.80
2023-02-25T19:35:49.032Z,6.90
2023-02-25T19:38:18.143Z,7.50
2023-02-25T19:40:46.412Z,12.10
2023-02-25T19:43:15.071Z,9.67
2023-02-25T19:45:42.721Z,6.97
2023-02-25T19:48:10.746Z,6.60
2023-02-25T19:50:41.503Z,7.20
2023-02-25T19:53:09.126Z,7.00
2023-02-25T19:55:37.544Z,6.37
2023-02-25T19:58:05.318Z,7.90
2023-02-25T20:00:32.886Z,6.77
2023-02-25T20:03:01.072Z,5.40
2023-02-25T20:05:28.490Z,6.53
2023-02-25T20:07:55.956Z,12.97
2023-02-25T20:10:23.410Z,5.80
2023-02-25T20:12:50.815Z,36.90
2023-02-25T20:15:18.327Z,9.70
2023-02-25T20:17:47.346Z,6.33
2023-02-25T20:20:16.616Z,6.73
2023-02-25T20:22:44.321Z,5.53
2023-02-25T20:25:13.526Z,11.47
2023-02-25T20:27:43.482Z,5.77
2023-02-25T20:30:14.326Z,4.57
2023-02-25T20:32:43.371Z,11.03
2023-02-25T20:35:16.800Z,6.20
2023-02-25T20:37:51.454Z,13.40
2023-02-25T20:40:19.060Z,5.80
2023-02-25T20:42:46.523Z,7.33
2023-02-25T20:45:17.293Z,4.83
2023-02-25T20:47:44.867Z,4.40
2023-02-25T20:50:15.495Z,6.47
2023-02-25T20:52:43.155Z,5.17
2023-02-25T20:55:10.912Z,5.30
2023-02-25T20:57:38.299Z,9.70
2023-02-25T21:00:09.027Z,6.53
2023-02-25T21:02:36.589Z,4.17
2023-02-25T21:05:04.384Z,2.67
2023-02-25T21:07:31.780Z,3.63
2023-02-25T21:09:59.183Z,3.73
2023-02-25T21:12:26.519Z,5.43
2023-02-25T21:14:53.968Z,2.20
2023-02-25T21:17:21.359Z,3.03
2023-02-25T21:19:48.873Z,6.53
2023-02-25T21:22:16.234Z,2.90
2023-02-25T21:24:43.615Z,3.87
2023-02-25T21:27:12.040Z,2.07
2023-02-25T21:29:39.433Z,2.60
2023-02-25T21:32:06.865Z,2.10
2023-02-25T21:34:34.260Z,1.83
2023-02-25T21:37:01.653Z,2.20
2023-02-25T21:39:29.092Z,3.20
2023-02-25T21:41:56.479Z,3.50
2023-02-25T21:44:23.819Z,9.30
2023-02-25T21:46:51.191Z,3.50
2023-02-25T21:49:18.594Z,4.20
2023-02-25T21:51:46.071Z,9.67
2023-02-25T21:54:13.725Z,4.80
2023-02-25T21:56:41.276Z,2.33
2023-02-25T21:59:09.479Z,3.70
2023-02-25T22:01:39.178Z,2.43
2023-02-25T22:04:07.329Z,1.80
2023-02-25T22:06:34.977Z,4.30
2023-02-25T22:09:02.432Z,3.00
2023-02-25T22:11:32.606Z,1.70
2023-02-25T22:14:01.554Z,1.73
2023-02-25T22:16:29.560Z,2.20
2023-02-25T22:18:57.280Z,2.10
2023-02-25T22:21:27.217Z,8.80
2023-02-25T22:23:56.621Z,1.90
2023-02-25T22:26:26.186Z,2.10
2023-02-25T22:29:01.804Z,2.50
2023-02-25T22:31:29.849Z,8.40
2023-02-25T22:33:57.859Z,1.97
2023-02-25T22:36:25.913Z,1.67
2023-02-25T22:38:53.524Z,4.57
2023-02-25T22:41:23.437Z,1.63
2023-02-25T22:43:51.303Z,4.50
2023-02-25T22:46:26.029Z,4.30
2023-02-25T22:48:54.013Z,3.33
2023-02-25T22:51:27.355Z,2.00
2023-02-25T22:53:56.430Z,1.80
2023-02-25T22:56:24.585Z,2.20
2023-02-25T22:58:52.134Z,4.10
2023-02-25T23:01:21.111Z,2.63
2023-02-25T23:03:50.626Z,1.73
2023-02-25T23:06:20.227Z,1.93
2023-02-25T23:08:48.263Z,1.50
2023-02-25T23:11:27.932Z,4.23
2023-02-25T23:13:58.429Z,1.50
2023-02-25T23:16:33.458Z,2.20
2023-02-25T23:19:02.422Z,1.83
2023-02-25T23:21:30.707Z,8.30
2023-02-25T23:24:00.323Z,2.00
2023-02-25T23:26:30.538Z,2.27
2023-02-25T23:28:59.855Z,3.53
2023-02-25T23:31:30.184Z,11.00
2023-02-25T23:34:03.262Z,6.70
2023-02-25T23:36:30.881Z,3.10
2023-02-25T23:39:00.499Z,3.40
2023-02-25T23:41:28.789Z,3.80
2023-02-25T23:43:58.358Z,3.60
2023-02-25T23:46:27.442Z,7.27
2023-02-25T23:48:59.905Z,17.93
2023-02-25T23:51:28.415Z,4.40
2023-02-25T23:53:56.928Z,3.90
2023-02-25T23:56:25.138Z,5.87
2023-02-25T23:58:53.785Z,5.13
